createdAt,value
2018-06-19T00:00:14.346Z,1011.04
2018-06-19T00:01:14.349Z,1011.03
2018-06-19T00:02:14.355Z,1011.07
2018-06-19T00:03:14.362Z,1011.06
2018-06-19T00:04:14.370Z,1011.08
2018-06-19T00:05:14.377Z,1011.08
2018-06-19T00:06:14.382Z,1011.08
2018-06-19T00:07:14.373Z,1011.03
2018-06-19T00:08:14.377Z,1011.03
2018-06-19T00:09:14.384Z,1011.02
2018-06-19T00:10:14.384Z,1011.00
2018-06-19T00:11:14.383Z,1011.05
2018-06-19T00:12:14.395Z,1011.10
2018-06-19T00:13:14.393Z,1011.04
2018-06-19T00:14:14.396Z,1011.04
2018-06-19T00:15:14.399Z,1011.06
2018-06-19T00:16:14.400Z,1011.04
2018-06-19T00:17:14.424Z,1011.05
2018-06-19T00:18:14.417Z,1011.06
2018-06-19T00:19:14.413Z,1011.05
2018-06-19T00:20:14.420Z,1011.09
2018-06-19T00:21:14.423Z,1011.08
2018-06-19T00:22:14.425Z,1011.11
2018-06-19T00:23:14.431Z,1011.09
2018-06-19T00:24:14.434Z,1011.07
2018-06-19T00:25:14.434Z,1011.10
2018-06-19T00:26:14.437Z,1011.14
2018-06-19T00:27:14.445Z,1011.10
2018-06-19T00:28:14.444Z,1011.13
2018-06-19T00:29:14.451Z,1011.13
2018-06-19T00:30:14.457Z,1011.15
2018-06-19T00:31:14.456Z,1011.13
2018-06-19T00:32:14.456Z,1011.18
2018-06-19T00:33:14.468Z,1011.17
2018-06-19T00:34:14.471Z,1011.16
2018-06-19T00:35:14.481Z,1011.17
2018-06-19T00:36:14.482Z,1011.16
2018-06-19T00:37:14.494Z,1011.22
2018-06-19T00:38:14.485Z,1011.18
2018-06-19T00:39:14.490Z,1011.18
2018-06-19T00:40:14.491Z,1011.21
2018-06-19T00:41:14.485Z,1011.21
2018-06-19T00:42:14.497Z,1011.24
2018-06-19T00:43:14.494Z,1011.25
2018-06-19T00:44:14.500Z,1011.20
2018-06-19T00:45:14.506Z,1011.18
2018-06-19T00:46:14.506Z,1011.19
2018-06-19T00:47:14.511Z,1011.19
2018-06-19T00:48:14.518Z,1011.20
2018-06-19T00:49:14.520Z,1011.18
2018-06-19T00:50:14.519Z,1011.20
2018-06-19T00:51:14.526Z,1011.21
2018-06-19T00:52:14.524Z,1011.25
2018-06-19T00:53:14.532Z,1011.23
2018-06-19T00:54:14.537Z,1011.21
2018-06-19T00:55:14.561Z,1011.20
2018-06-19T00:56:14.545Z,1011.24
2018-06-19T00:57:14.545Z,1011.20
2018-06-19T00:58:14.551Z,1011.20
2018-06-19T00:59:14.552Z,1011.20
2018-06-19T01:00:14.555Z,1011.18
2018-06-19T01:01:14.560Z,1011.20
2018-06-19T01:02:14.559Z,1011.23
2018-06-19T01:03:14.568Z,1011.20
2018-06-19T01:04:14.580Z,1011.18
2018-06-19T01:05:14.574Z,1011.22
2018-06-19T01:06:14.580Z,1011.16
2018-06-19T01:07:14.588Z,1011.18
2018-06-19T01:08:14.588Z,1011.17
2018-06-19T01:09:14.595Z,1011.18
2018-06-19T01:10:14.591Z,1011.20
2018-06-19T01:11:14.591Z,1011.16
2018-06-19T01:12:14.598Z,1011.19
2018-06-19T01:13:14.599Z,1011.19
2018-06-19T01:14:14.606Z,1011.20
2018-06-19T01:15:14.604Z,1011.22
2018-06-19T01:16:14.627Z,1011.22
2018-06-19T01:17:14.617Z,1011.21
2018-06-19T01:18:14.624Z,1011.23
2018-06-19T01:19:14.646Z,1011.25
2018-06-19T01:20:14.622Z,1011.26
2018-06-19T01:21:14.624Z,1011.30
2018-06-19T01:22:14.627Z,1011.24
2018-06-19T01:23:14.634Z,1011.25
2018-06-19T01:24:14.634Z,1011.25
2018-06-19T01:25:14.632Z,1011.24
2018-06-19T01:26:14.643Z,1011.25
2018-06-19T01:27:14.641Z,1011.26
2018-06-19T01:28:14.650Z,1011.25
2018-06-19T01:29:14.649Z,1011.28
2018-06-19T01:30:14.659Z,1011.26
2018-06-19T01:31:14.672Z,1011.26
2018-06-19T01:32:14.656Z,1011.26
2018-06-19T01:33:14.662Z,1011.23
2018-06-19T01:34:14.670Z,1011.30
2018-06-19T01:35:14.670Z,1011.27
2018-06-19T01:36:14.673Z,1011.33
2018-06-19T01:37:14.674Z,1011.29
2018-06-19T01:38:14.703Z,1011.29
2018-06-19T01:39:14.680Z,1011.28
2018-06-19T01:40:14.681Z,1011.29
2018-06-19T01:41:14.689Z,1011.33
2018-06-19T01:42:14.691Z,1011.31
2018-06-19T01:43:14.699Z,1011.32
2018-06-19T01:44:14.695Z,1011.29
2018-06-19T01:45:14.706Z,1011.33
2018-06-19T01:46:14.719Z,1011.31
2018-06-19T01:47:14.703Z,1011.34
2018-06-19T01:48:14.713Z,1011.32
2018-06-19T01:49:14.733Z,1011.35
2018-06-19T01:50:14.710Z,1011.34
2018-06-19T01:51:14.720Z,1011.37
2018-06-19T01:52:14.721Z,1011.34
2018-06-19T01:53:14.729Z,1011.33
2018-06-19T01:54:14.733Z,1011.31
2018-06-19T01:55:14.724Z,1011.31
2018-06-19T01:56:14.734Z,1011.31
2018-06-19T01:57:14.736Z,1011.32
2018-06-19T01:58:14.752Z,1011.36
2018-06-19T01:59:14.755Z,1011.35
2018-06-19T02:00:14.744Z,1011.40
2018-06-19T02:01:14.755Z,1011.39
2018-06-19T02:02:14.747Z,1011.40
2018-06-19T02:03:14.758Z,1011.39
2018-06-19T02:04:14.753Z,1011.41
2018-06-19T02:05:14.758Z,1011.38
2018-06-19T02:06:14.780Z,1011.38
2018-06-19T02:07:14.764Z,1011.41
2018-06-19T02:08:14.769Z,1011.41
2018-06-19T02:09:14.774Z,1011.40
2018-06-19T02:10:14.771Z,1011.40
2018-06-19T02:11:14.795Z,1011.39
2018-06-19T02:12:14.781Z,1011.39
2018-06-19T02:13:14.786Z,1011.39
2018-06-19T02:14:14.786Z,1011.42
2018-06-19T02:15:14.789Z,1011.39
2018-06-19T02:16:14.789Z,1011.43
2018-06-19T02:17:14.789Z,1011.44
2018-06-19T02:18:14.796Z,1011.41
2018-06-19T02:19:14.802Z,1011.39
2018-06-19T02:20:14.804Z,1011.40
2018-06-19T02:21:14.801Z,1011.38
2018-06-19T02:22:14.806Z,1011.42
2018-06-19T02:23:14.813Z,1011.41
2018-06-19T02:24:14.820Z,1011.38
2018-06-19T02:25:14.817Z,1011.35
2018-06-19T02:26:14.828Z,1011.35
2018-06-19T02:27:14.821Z,1011.37
2018-06-19T02:28:14.827Z,1011.39
2018-06-19T02:29:14.841Z,1011.38
2018-06-19T02:30:14.836Z,1011.42
2018-06-19T02:31:14.836Z,1011.43
2018-06-19T02:32:14.842Z,1011.45
2018-06-19T02:33:14.839Z,1011.47
2018-06-19T02:34:14.843Z,1011.47
2018-06-19T02:35:14.849Z,1011.46
2018-06-19T02:36:14.853Z,1011.42
2018-06-19T02:37:14.857Z,1011.43
2018-06-19T02:38:14.849Z,1011.43
2018-06-19T02:39:14.864Z,1011.40
2018-06-19T02:40:14.885Z,1011.43
2018-06-19T02:41:14.863Z,1011.41
2018-06-19T02:42:14.866Z,1011.38
2018-06-19T02:43:14.866Z,1011.40
2018-06-19T02:44:14.864Z,1011.39
2018-06-19T02:45:14.874Z,1011.43
2018-06-19T02:46:14.878Z,1011.44
2018-06-19T02:47:14.880Z,1011.46
2018-06-19T02:48:14.884Z,1011.45
2018-06-19T02:49:14.880Z,1011.44
2018-06-19T02:50:14.892Z,1011.48
2018-06-19T02:51:14.888Z,1011.43
2018-06-19T02:52:14.890Z,1011.46
2018-06-19T02:53:14.902Z,1011.50
2018-06-19T02:54:14.905Z,1011.45
2018-06-19T02:55:14.902Z,1011.47
2018-06-19T02:56:14.905Z,1011.46
2018-06-19T02:57:14.903Z,1011.44
2018-06-19T02:58:14.915Z,1011.43
2018-06-19T02:59:14.912Z,1011.44
2018-06-19T03:00:15.037Z,1011.42
2018-06-19T03:19:38.799Z,1011.54
2018-06-19T03:20:38.773Z,1011.52
2018-06-19T03:21:38.766Z,1011.54
2018-06-19T03:22:38.762Z,1011.54
2018-06-19T03:23:38.762Z,1011.50
2018-06-19T03:24:38.765Z,1011.51
2018-06-19T03:25:38.766Z,1011.53
2018-06-19T03:26:38.765Z,1011.49
2018-06-19T03:27:38.765Z,1011.49
2018-06-19T03:28:38.764Z,1011.52
2018-06-19T03:29:38.767Z,1011.52
2018-06-19T03:30:38.770Z,1011.55
2018-06-19T03:31:38.768Z,1011.60
2018-06-19T03:32:38.779Z,1011.58
2018-06-19T03:33:38.770Z,1011.60
2018-06-19T03:34:38.769Z,1011.66
2018-06-19T03:35:38.775Z,1011.62
2018-06-19T03:36:38.771Z,1011.64
2018-06-19T03:37:38.775Z,1011.60
2018-06-19T03:38:38.784Z,1011.62
2018-06-19T03:39:38.786Z,1011.65
2018-06-19T03:40:38.789Z,1011.65
2018-06-19T03:41:38.788Z,1011.68
2018-06-19T03:42:38.790Z,1011.70
2018-06-19T03:43:38.791Z,1011.73
2018-06-19T03:44:38.795Z,1011.74
2018-06-19T03:45:38.797Z,1011.77
2018-06-19T03:46:38.802Z,1011.79
2018-06-19T03:47:38.799Z,1011.77
2018-06-19T03:48:38.806Z,1011.80
2018-06-19T03:49:38.808Z,1011.77
2018-06-19T03:50:38.812Z,1011.81
2018-06-19T03:51:38.814Z,1011.86
2018-06-19T03:52:38.825Z,1011.86
2018-06-19T03:53:38.826Z,1011.83
2018-06-19T03:54:38.843Z,1011.85
2018-06-19T03:55:38.825Z,1011.79
2018-06-19T03:56:38.827Z,1011.79
2018-06-19T03:57:38.830Z,1011.81
2018-06-19T03:58:38.830Z,1011.84
2018-06-19T03:59:38.845Z,1011.83
2018-06-19T04:00:38.857Z,1011.83
2018-06-19T04:01:38.837Z,1011.86
2018-06-19T04:02:38.842Z,1011.83
2018-06-19T04:03:38.847Z,1011.83
2018-06-19T04:04:38.850Z,1011.82
2018-06-19T04:05:38.858Z,1011.81
2018-06-19T04:06:38.856Z,1011.81
2018-06-19T04:07:38.874Z,1011.86
2018-06-19T04:08:38.881Z,1011.87
2018-06-19T04:09:38.887Z,1011.92
2018-06-19T04:10:38.867Z,1011.89
2018-06-19T04:11:38.871Z,1011.85
2018-06-19T04:12:38.870Z,1011.84
2018-06-19T04:13:38.870Z,1011.82
2018-06-19T04:14:38.877Z,1011.83
2018-06-19T04:15:38.877Z,1011.84
2018-06-19T04:16:38.885Z,1011.86
2018-06-19T04:17:38.885Z,1011.91
2018-06-19T04:18:38.922Z,1011.88
2018-06-19T04:19:38.896Z,1011.86
2018-06-19T04:20:38.894Z,1011.91
2018-06-19T04:21:38.962Z,1011.95
2018-06-19T04:22:38.914Z,1011.86
2018-06-19T04:23:38.912Z,1011.91
2018-06-19T04:24:38.913Z,1011.91
2018-06-19T04:25:38.918Z,1011.89
2018-06-19T04:26:38.930Z,1011.85
2018-06-19T04:27:38.932Z,1011.85
2018-06-19T04:28:38.921Z,1011.83
2018-06-19T04:29:38.927Z,1011.85
2018-06-19T04:30:38.936Z,1011.81
2018-06-19T04:31:38.952Z,1011.80
2018-06-19T04:32:38.952Z,1011.79
2018-06-19T04:33:38.941Z,1011.81
2018-06-19T04:34:38.958Z,1011.77
2018-06-19T04:35:38.959Z,1011.81
2018-06-19T04:36:38.956Z,1011.84
2018-06-19T04:37:38.982Z,1011.87
2018-06-19T04:38:38.986Z,1011.89
2018-06-19T04:39:38.981Z,1011.89
2018-06-19T04:40:38.970Z,1011.87
2018-06-19T04:41:38.972Z,1011.91
2018-06-19T04:42:38.982Z,1011.91
2018-06-19T04:43:38.983Z,1011.95
2018-06-19T04:44:38.984Z,1011.92
2018-06-19T04:45:38.992Z,1011.93
2018-06-19T04:46:38.990Z,1011.93
2018-06-19T04:47:39.004Z,1011.92
2018-06-19T04:48:39.015Z,1011.94
2018-06-19T04:49:39.068Z,1011.93
2018-06-19T04:50:39.023Z,1011.95
2018-06-19T04:51:39.024Z,1011.93
2018-06-19T04:52:39.019Z,1011.92
2018-06-19T04:53:39.026Z,1011.94
2018-06-19T04:54:39.034Z,1011.98
2018-06-19T04:55:39.033Z,1011.96
2018-06-19T04:56:39.030Z,1011.93
2018-06-19T04:57:39.035Z,1011.96
2018-06-19T04:58:39.038Z,1011.95
2018-06-19T04:59:39.042Z,1011.95
2018-06-19T05:00:39.052Z,1011.92
2018-06-19T05:01:39.050Z,1011.91
2018-06-19T05:02:39.051Z,1011.88
2018-06-19T05:03:39.062Z,1011.90
2018-06-19T05:04:39.060Z,1011.95
2018-06-19T05:05:39.089Z,1011.98
2018-06-19T05:06:39.070Z,1011.96
2018-06-19T05:07:39.089Z,1011.98
2018-06-19T05:08:39.087Z,1011.96
2018-06-19T05:09:39.087Z,1011.93
2018-06-19T05:10:39.087Z,1011.94
2018-06-19T05:11:39.094Z,1011.97
2018-06-19T05:12:39.090Z,1011.99
2018-06-19T05:13:39.100Z,1011.99
2018-06-19T05:14:39.108Z,1011.98
2018-06-19T05:15:39.106Z,1011.96
2018-06-19T05:16:39.119Z,1011.97
2018-06-19T05:17:39.124Z,1011.97
2018-06-19T05:18:39.126Z,1011.94
2018-06-19T05:19:39.118Z,1011.93
2018-06-19T05:20:39.126Z,1011.97
2018-06-19T05:21:39.127Z,1012.01
2018-06-19T05:22:39.130Z,1012.10
2018-06-19T05:23:39.139Z,1012.03
2018-06-19T05:24:39.137Z,1012.02
2018-06-19T05:25:39.153Z,1012.04
2018-06-19T05:26:47.793Z,1012.02
2018-06-19T05:28:41.615Z,1012.04
2018-06-19T05:29:41.175Z,1012.06
2018-06-19T05:31:25.975Z,1012.07
2018-06-19T05:32:25.966Z,1012.04
2018-06-19T05:33:34.592Z,1012.05
2018-06-19T05:35:28.437Z,1012.09
2018-06-19T05:37:40.669Z,1012.13
2018-06-19T05:38:40.667Z,1012.10
2018-06-19T05:39:40.672Z,1012.12
2018-06-19T05:40:40.674Z,1012.13
2018-06-19T05:41:40.687Z,1012.10
2018-06-19T05:42:40.680Z,1012.08
2018-06-19T05:43:40.684Z,1012.06
2018-06-19T05:44:40.689Z,1012.10
2018-06-19T05:45:40.714Z,1012.09
2018-06-19T05:46:40.696Z,1012.18
2018-06-19T05:47:40.707Z,1012.16
2018-06-19T05:48:40.705Z,1012.18
2018-06-19T05:49:40.714Z,1012.22
2018-06-19T05:50:40.713Z,1012.19
2018-06-19T05:51:40.719Z,1012.24
2018-06-19T05:52:40.731Z,1012.38
2018-06-19T05:53:40.732Z,1012.26
2018-06-19T05:54:40.736Z,1012.35
2018-06-19T05:55:40.737Z,1012.27
2018-06-19T05:56:40.755Z,1012.36
2018-06-19T05:57:40.761Z,1012.32
2018-06-19T05:58:40.760Z,1012.29
2018-06-19T05:59:40.770Z,1012.37
2018-06-19T06:00:40.776Z,1012.38
2018-06-19T06:01:40.785Z,1012.38
2018-06-19T06:02:40.790Z,1012.39
2018-06-19T06:03:40.797Z,1012.37
2018-06-19T06:04:40.803Z,1012.40
2018-06-19T06:05:40.887Z,1012.36
2018-06-19T06:06:40.823Z,1012.45
2018-06-19T06:07:40.824Z,1012.48
2018-06-19T06:08:40.836Z,1012.52
2018-06-19T06:09:40.840Z,1012.49
2018-06-19T06:10:40.851Z,1012.56
2018-06-19T06:11:40.859Z,1012.61
2018-06-19T06:12:40.874Z,1012.58
2018-06-19T06:13:40.871Z,1012.56
2018-06-19T06:14:40.873Z,1012.57
2018-06-19T06:15:41.005Z,1012.52
2018-06-19T06:16:40.997Z,1012.54
2018-06-19T06:17:40.895Z,1012.55
2018-06-19T06:18:40.903Z,1012.53
2018-06-19T06:19:40.907Z,1012.55
2018-06-19T06:20:40.910Z,1012.57
2018-06-19T06:21:40.919Z,1012.55
2018-06-19T06:22:40.923Z,1012.56
2018-06-19T06:23:40.927Z,1012.52
2018-06-19T06:24:40.938Z,1012.48
2018-06-19T06:25:40.943Z,1012.50
2018-06-19T06:26:40.946Z,1012.54
2018-06-19T06:27:40.955Z,1012.53
2018-06-19T06:28:40.968Z,1012.57
2018-06-19T06:29:40.964Z,1012.61
2018-06-19T06:30:40.977Z,1012.62
2018-06-19T06:31:40.977Z,1012.61
2018-06-19T06:32:40.986Z,1012.59
2018-06-19T06:33:40.997Z,1012.59
2018-06-19T06:34:40.997Z,1012.57
2018-06-19T06:35:41.007Z,1012.61
2018-06-19T06:36:41.015Z,1012.58
2018-06-19T06:37:41.019Z,1012.61
2018-06-19T06:38:41.043Z,1012.60
2018-06-19T06:39:41.048Z,1012.62
2018-06-19T06:40:41.045Z,1012.65
2018-06-19T06:41:41.042Z,1012.60
2018-06-19T06:42:41.045Z,1012.66
2018-06-19T06:43:41.055Z,1012.64
2018-06-19T06:44:41.095Z,1012.64
2018-06-19T06:45:41.071Z,1012.62
2018-06-19T06:46:41.074Z,1012.61
2018-06-19T06:47:41.075Z,1012.64
2018-06-19T06:48:41.089Z,1012.59
2018-06-19T06:49:41.098Z,1012.54
2018-06-19T06:50:41.121Z,1012.55
2018-06-19T06:51:41.140Z,1012.59
2018-06-19T06:52:41.122Z,1012.54
2018-06-19T06:53:41.125Z,1012.56
2018-06-19T06:54:41.122Z,1012.57
2018-06-19T06:55:41.129Z,1012.60
2018-06-19T06:56:41.138Z,1012.58
2018-06-19T06:57:41.142Z,1012.57
2018-06-19T06:58:41.142Z,1012.58
2018-06-19T06:59:41.153Z,1012.60
2018-06-19T07:00:41.163Z,1012.60
2018-06-19T07:01:41.165Z,1012.60
2018-06-19T07:02:41.175Z,1012.56
2018-06-19T07:03:41.172Z,1012.57
2018-06-19T07:04:41.192Z,1012.62
2018-06-19T07:05:41.213Z,1012.63
2018-06-19T07:06:41.192Z,1012.64
2018-06-19T07:07:41.218Z,1012.63
2018-06-19T07:08:41.204Z,1012.62
2018-06-19T07:09:41.214Z,1012.58
2018-06-19T07:10:41.209Z,1012.65
2018-06-19T07:11:41.218Z,1012.67
2018-06-19T07:12:41.233Z,1012.64
2018-06-19T07:13:41.233Z,1012.63
2018-06-19T07:14:41.243Z,1012.61
2018-06-19T07:15:41.316Z,1012.60
2018-06-19T07:16:41.299Z,1012.60
2018-06-19T07:17:41.261Z,1012.60
2018-06-19T07:18:41.348Z,1012.60
2018-06-19T07:19:41.272Z,1012.57
2018-06-19T07:20:41.277Z,1012.61
2018-06-19T07:21:41.283Z,1012.64
2018-06-19T07:22:41.317Z,1012.65
2018-06-19T07:23:41.297Z,1012.68
2018-06-19T07:24:41.297Z,1012.64
2018-06-19T07:25:41.319Z,1012.61
2018-06-19T07:26:41.303Z,1012.61
2018-06-19T07:27:41.330Z,1012.63
2018-06-19T07:28:41.315Z,1012.65
2018-06-19T07:29:41.375Z,1012.65
2018-06-19T07:30:41.333Z,1012.63
2018-06-19T07:31:41.329Z,1012.67
2018-06-19T07:32:41.339Z,1012.62
2018-06-19T07:33:41.345Z,1012.65
2018-06-19T07:34:41.506Z,1012.61
2018-06-19T07:35:41.625Z,1012.65
2018-06-19T07:36:41.594Z,1012.68
2018-06-19T07:37:41.370Z,1012.65
2018-06-19T07:38:41.388Z,1012.66
2018-06-19T07:39:41.368Z,1012.64
2018-06-19T07:40:50.712Z,1012.64
2018-06-19T07:42:34.357Z,1012.61
2018-06-19T07:43:34.344Z,1012.66
2018-06-19T07:44:35.023Z,1012.63
2018-06-19T07:45:34.367Z,1012.62
2018-06-19T07:46:34.375Z,1012.63
2018-06-19T07:47:34.382Z,1012.63
2018-06-19T07:48:34.372Z,1012.59
2018-06-19T07:49:34.482Z,1012.63
2018-06-19T07:50:34.392Z,1012.60
2018-06-19T07:51:34.413Z,1012.59
2018-06-19T07:52:34.412Z,1012.58
2018-06-19T07:53:34.416Z,1012.57
2018-06-19T07:54:34.426Z,1012.56
2018-06-19T07:55:34.473Z,1012.59
2018-06-19T07:56:34.464Z,1012.59
2018-06-19T07:57:34.421Z,1012.57
2018-06-19T07:58:34.456Z,1012.54
2018-06-19T07:59:34.440Z,1012.55
2018-06-19T08:00:34.443Z,1012.56
2018-06-19T08:01:34.451Z,1012.52
2018-06-19T08:02:34.455Z,1012.54
2018-06-19T08:03:34.460Z,1012.49
2018-06-19T08:04:34.493Z,1012.46
2018-06-19T08:05:34.467Z,1012.47
2018-06-19T08:06:34.486Z,1012.48
2018-06-19T08:07:34.478Z,1012.49
2018-06-19T08:08:34.514Z,1012.53
2018-06-19T08:09:34.494Z,1012.53
2018-06-19T08:10:34.499Z,1012.53
2018-06-19T08:11:34.504Z,1012.52
2018-06-19T08:12:34.513Z,1012.47
2018-06-19T08:13:34.593Z,1012.45
2018-06-19T08:14:34.570Z,1012.41
2018-06-19T08:15:34.537Z,1012.45
2018-06-19T08:16:34.542Z,1012.42
2018-06-19T08:17:34.541Z,1012.42
2018-06-19T08:18:34.560Z,1012.36
2018-06-19T08:19:34.565Z,1012.43
2018-06-19T08:20:34.570Z,1012.41
2018-06-19T08:21:34.569Z,1012.39
2018-06-19T08:22:34.632Z,1012.41
2018-06-19T08:23:34.569Z,1012.40
2018-06-19T08:24:34.585Z,1012.36
2018-06-19T08:25:34.585Z,1012.37
2018-06-19T08:26:34.592Z,1012.36
2018-06-19T08:27:34.595Z,1012.40
2018-06-19T08:28:34.598Z,1012.41
2018-06-19T08:29:34.621Z,1012.39
2018-06-19T08:30:34.606Z,1012.36
2018-06-19T08:31:34.609Z,1012.35
2018-06-19T08:32:34.628Z,1012.34
2018-06-19T08:33:34.628Z,1012.36
2018-06-19T08:34:34.633Z,1012.35
2018-06-19T08:35:34.633Z,1012.34
2018-06-19T08:36:34.639Z,1012.36
2018-06-19T08:37:34.648Z,1012.39
2018-06-19T08:38:34.650Z,1012.41
2018-06-19T08:39:34.657Z,1012.38
2018-06-19T08:40:34.669Z,1012.37
2018-06-19T08:41:34.672Z,1012.38
2018-06-19T08:42:34.693Z,1012.38
2018-06-19T08:43:34.683Z,1012.39
2018-06-19T08:44:34.692Z,1012.40
2018-06-19T08:45:34.695Z,1012.39
2018-06-19T08:46:34.703Z,1012.40
2018-06-19T08:47:34.709Z,1012.44
2018-06-19T08:48:34.716Z,1012.42
2018-06-19T08:49:34.719Z,1012.42
2018-06-19T08:50:34.716Z,1012.40
2018-06-19T08:51:34.744Z,1012.38
2018-06-19T08:52:34.736Z,1012.42
2018-06-19T08:53:34.739Z,1012.42
2018-06-19T08:54:34.750Z,1012.46
2018-06-19T08:55:34.747Z,1012.49
2018-06-19T08:56:34.757Z,1012.46
2018-06-19T08:57:34.768Z,1012.41
2018-06-19T08:58:34.766Z,1012.46
2018-06-19T08:59:34.781Z,1012.48
2018-06-19T09:00:34.785Z,1012.50
2018-06-19T09:01:34.792Z,1012.53
2018-06-19T09:02:34.791Z,1012.52
2018-06-19T09:03:34.798Z,1012.45
2018-06-19T09:04:34.809Z,1012.43
2018-06-19T09:05:34.811Z,1012.43
2018-06-19T09:06:34.809Z,1012.47
2018-06-19T09:07:34.815Z,1012.39
2018-06-19T09:08:34.828Z,1012.44
2018-06-19T09:09:34.845Z,1012.44
2018-06-19T09:10:34.838Z,1012.45
2018-06-19T09:11:34.845Z,1012.47
2018-06-19T09:12:34.850Z,1012.50
2018-06-19T09:13:34.863Z,1012.49
2018-06-19T09:14:34.865Z,1012.43
2018-06-19T09:15:34.871Z,1012.47
2018-06-19T09:16:34.880Z,1012.46
2018-06-19T09:17:34.878Z,1012.41
2018-06-19T09:18:34.888Z,1012.45
2018-06-19T09:19:34.911Z,1012.41
2018-06-19T09:20:34.903Z,1012.43
2018-06-19T09:21:34.911Z,1012.47
2018-06-19T09:22:34.919Z,1012.40
2018-06-19T09:23:34.922Z,1012.46
2018-06-19T09:24:34.924Z,1012.41
2018-06-19T09:25:34.934Z,1012.43
2018-06-19T09:26:34.937Z,1012.39
2018-06-19T09:27:34.945Z,1012.39
2018-06-19T09:28:34.949Z,1012.37
2018-06-19T09:29:34.961Z,1012.36
2018-06-19T09:30:34.974Z,1012.36
2018-06-19T09:31:34.983Z,1012.30
2018-06-19T09:32:34.972Z,1012.36
2018-06-19T09:33:34.989Z,1012.34
2018-06-19T09:34:35.006Z,1012.33
2018-06-19T09:35:34.991Z,1012.37
2018-06-19T09:36:34.995Z,1012.33
2018-06-19T09:37:35.008Z,1012.31
2018-06-19T09:38:35.011Z,1012.31
2018-06-19T09:39:35.013Z,1012.33
2018-06-19T09:40:35.027Z,1012.34
2018-06-19T09:41:35.033Z,1012.31
2018-06-19T09:42:35.032Z,1012.30
2018-06-19T09:43:35.045Z,1012.33
2018-06-19T09:44:35.043Z,1012.31
2018-06-19T09:45:35.056Z,1012.29
2018-06-19T09:46:35.064Z,1012.26
2018-06-19T09:47:35.071Z,1012.27
2018-06-19T09:48:35.073Z,1012.26
2018-06-19T09:49:35.082Z,1012.30
2018-06-19T09:50:35.086Z,1012.27
2018-06-19T09:51:35.091Z,1012.27
2018-06-19T09:52:35.098Z,1012.23
2018-06-19T09:53:35.131Z,1012.21
2018-06-19T09:54:35.118Z,1012.18
2018-06-19T09:55:35.123Z,1012.29
2018-06-19T09:56:35.121Z,1012.23
2018-06-19T09:57:35.126Z,1012.20
2018-06-19T09:58:35.136Z,1012.21
2018-06-19T09:59:35.195Z,1012.16
2018-06-19T10:00:35.164Z,1012.18
2018-06-19T10:01:35.157Z,1012.18
2018-06-19T10:02:35.163Z,1012.17
2018-06-19T10:03:35.167Z,1012.17
2018-06-19T10:04:35.168Z,1012.17
2018-06-19T10:05:35.215Z,1012.17
2018-06-19T10:06:35.241Z,1012.21
2018-06-19T10:07:35.192Z,1012.21
2018-06-19T10:08:35.246Z,1012.25
2018-06-19T10:09:35.211Z,1012.15
2018-06-19T10:10:35.206Z,1012.21
2018-06-19T10:11:35.224Z,1012.16
2018-06-19T10:12:35.227Z,1012.18
2018-06-19T10:13:35.237Z,1012.16
2018-06-19T10:14:35.233Z,1012.19
2018-06-19T10:15:35.243Z,1012.18
2018-06-19T10:16:35.252Z,1012.10
2018-06-19T10:17:35.261Z,1012.11
2018-06-19T10:18:35.258Z,1012.11
2018-06-19T10:19:35.311Z,1012.09
2018-06-19T10:20:35.273Z,1012.10
2018-06-19T10:21:35.292Z,1012.09
2018-06-19T10:22:35.302Z,1012.12
2018-06-19T10:23:35.314Z,1012.07
2018-06-19T10:24:35.297Z,1012.03
2018-06-19T10:25:35.303Z,1012.12
2018-06-19T10:26:35.315Z,1012.13
2018-06-19T10:27:35.319Z,1012.15
2018-06-19T10:28:35.389Z,1012.16
2018-06-19T10:29:35.327Z,1012.16
2018-06-19T10:30:35.361Z,1012.17
2018-06-19T10:31:35.357Z,1012.13
2018-06-19T10:32:35.378Z,1012.12
2018-06-19T10:33:35.360Z,1012.15
2018-06-19T10:34:35.368Z,1012.11
2018-06-19T10:35:35.379Z,1012.17
2018-06-19T10:36:35.392Z,1012.17
2018-06-19T10:37:35.400Z,1012.18
2018-06-19T10:38:35.399Z,1012.17
2018-06-19T10:39:35.412Z,1012.15
2018-06-19T10:40:35.443Z,1012.14
2018-06-19T10:41:35.409Z,1012.11
2018-06-19T10:42:35.418Z,1012.09
2018-06-19T10:43:35.438Z,1012.11
2018-06-19T10:44:35.431Z,1012.13
2018-06-19T10:45:35.442Z,1012.13
2018-06-19T10:46:35.476Z,1012.12
2018-06-19T10:47:35.451Z,1012.12
2018-06-19T10:48:35.487Z,1012.08
2018-06-19T10:49:35.465Z,1012.09
2018-06-19T10:50:35.516Z,1012.08
2018-06-19T10:51:35.483Z,1012.08
2018-06-19T10:52:35.603Z,1012.11
2018-06-19T10:53:35.499Z,1012.05
2018-06-19T10:54:35.513Z,1012.03
2018-06-19T10:55:35.509Z,1012.04
2018-06-19T10:56:35.521Z,1012.07
2018-06-19T10:57:35.565Z,1012.01
2018-06-19T10:58:35.529Z,1012.06
2018-06-19T10:59:35.539Z,1012.05
2018-06-19T11:00:35.571Z,1012.03
2018-06-19T11:01:35.560Z,1012.08
2018-06-19T11:02:35.589Z,1012.07
2018-06-19T11:03:35.606Z,1012.12
2018-06-19T11:04:35.647Z,1012.09
2018-06-19T11:05:35.753Z,1012.05
2018-06-19T11:06:35.656Z,1012.03
2018-06-19T11:07:35.609Z,1011.99
2018-06-19T11:08:35.611Z,1012.00
2018-06-19T11:09:35.617Z,1012.03
2018-06-19T11:10:35.698Z,1012.03
2018-06-19T11:11:35.620Z,1012.01
2018-06-19T11:12:35.647Z,1012.04
2018-06-19T11:13:35.644Z,1012.00
2018-06-19T11:14:35.723Z,1011.99
2018-06-19T11:15:35.695Z,1012.05
2018-06-19T11:17:56.737Z,1012.04
2018-06-19T11:18:56.768Z,1012.04
2018-06-19T11:19:56.798Z,1011.98
2018-06-19T11:20:56.763Z,1012.04
2018-06-19T11:21:56.745Z,1012.04
2018-06-19T11:22:56.746Z,1011.98
2018-06-19T11:23:56.835Z,1012.03
2018-06-19T11:24:56.786Z,1012.00
2018-06-19T11:25:56.768Z,1011.97
2018-06-19T11:26:56.778Z,1011.97
2018-06-19T11:27:56.847Z,1012.01
2018-06-19T11:28:56.825Z,1011.99
2018-06-19T11:29:56.861Z,1012.02
2018-06-19T11:30:56.833Z,1012.05
2018-06-19T11:31:56.820Z,1012.05
2018-06-19T11:32:56.874Z,1011.95
2018-06-19T11:33:56.836Z,1012.00
2018-06-19T11:34:56.845Z,1011.99
2018-06-19T11:35:56.867Z,1011.98
2018-06-19T11:36:56.863Z,1011.93
2018-06-19T11:37:56.855Z,1011.96
2018-06-19T11:38:56.871Z,1011.89
2018-06-19T11:39:56.923Z,1011.96
2018-06-19T11:40:56.886Z,1011.90
2018-06-19T11:41:56.885Z,1011.95
2018-06-19T11:42:56.898Z,1011.96
2018-06-19T11:43:56.904Z,1011.94
2018-06-19T11:44:56.954Z,1011.93
2018-06-19T11:45:56.924Z,1011.88
2018-06-19T11:46:56.927Z,1011.88
2018-06-19T11:47:56.930Z,1011.88
2018-06-19T11:48:56.949Z,1011.89
2018-06-19T11:49:56.943Z,1011.81
2018-06-19T11:50:56.981Z,1011.89
2018-06-19T11:51:56.962Z,1011.89
2018-06-19T11:52:57.012Z,1011.88
2018-06-19T11:53:56.973Z,1011.86
2018-06-19T11:54:57.020Z,1011.87
2018-06-19T11:55:56.989Z,1011.83
2018-06-19T11:56:57.041Z,1011.78
2018-06-19T11:57:56.997Z,1011.79
2018-06-19T11:58:57.027Z,1011.78
2018-06-19T11:59:57.013Z,1011.79
2018-06-19T12:00:57.030Z,1011.82
2018-06-19T12:01:57.079Z,1011.87
2018-06-19T12:02:57.091Z,1011.85
2018-06-19T12:03:57.064Z,1011.81
2018-06-19T12:04:57.295Z,1011.80
2018-06-19T12:05:57.067Z,1011.82
2018-06-19T12:06:57.076Z,1011.84
2018-06-19T12:07:57.071Z,1011.83
2018-06-19T12:08:57.094Z,1011.75
2018-06-19T12:09:57.088Z,1011.79
2018-06-19T12:10:57.200Z,1011.81
2018-06-19T12:11:57.146Z,1011.79
2018-06-19T12:12:57.115Z,1011.81
2018-06-19T12:13:57.121Z,1011.81
2018-06-19T12:14:57.173Z,1011.80
2018-06-19T12:15:57.142Z,1011.78
2018-06-19T12:16:57.145Z,1011.76
2018-06-19T12:17:57.155Z,1011.72
2018-06-19T12:18:57.157Z,1011.77
2018-06-19T12:19:57.180Z,1011.79
2018-06-19T12:20:57.174Z,1011.73
2018-06-19T12:21:57.233Z,1011.79
2018-06-19T12:22:57.189Z,1011.79
2018-06-19T12:23:57.217Z,1011.75
2018-06-19T12:24:57.209Z,1011.78
2018-06-19T12:25:57.225Z,1011.76
2018-06-19T12:26:57.216Z,1011.77
2018-06-19T12:27:57.273Z,1011.76
2018-06-19T12:28:57.238Z,1011.73
2018-06-19T12:29:57.254Z,1011.75